LHFH 162103Z 02304KT 12/10 Q1017 =



----